Peck, Idaho
Current Conditions -  °F | °C
As of 11:56 PM on Monday 26 Jan 2015 (Local Time) from KLWS Reporting Station
Clear Clear  
Wind Chill: 43°   Ceiling: Unl
Heat Index: 47°   Visibility: 10mi
Dew Point: 39°   Wind: 9mph
Humidity: 74%   Direction: 80°E
Pressure: 30.01"   Gusts: NA
Location:  46.48°N, 116.42°W
Report Text: KLWS 270756Z AUTO 08008KT 10SM CLR 08/04 A3001 RMK AO2 SLP164 T00830039 401720072
Loading
Personal Weather Stations






























Interactive Weather Map New forecast layout! Learn more

10-Day Weather Forecast

Advertisements
Track Severe Weather on mobile